Time;durP1;ratioP1;P1;durP2;ratioP2;P2;SDS_P1;SDS_P2;PMS_P1;PMS_P2;Temp;Humidity;BMP_temperature;BMP_pressure;BME280_temperature;BME280_humidity;BME280_pressure;Samples;Min_cycle;Max_cycle;Signal;HPM_P1;HPM_P2
2023/10/24 00:01:58;;;;;;;11.82;5.95;;;10.40;99.90;;;;;;4226298;28;20092;-82
2023/10/24 00:03:59;;;;;;;12.40;6.20;;;10.40;99.90;;;;;;4223009;28;20040;-82
2023/10/24 00:06:02;;;;;;;14.75;6.03;;;10.40;99.90;;;;;;4243557;27;20039;-82
2023/10/24 00:08:22;;;;;;;11.38;6.25;;;10.50;99.90;;;;;;4237584;27;20453;-82
2023/10/24 00:10:24;;;;;;;10.50;5.47;;;10.40;99.90;;;;;;4247912;27;20134;-82
2023/10/24 00:12:24;;;;;;;12.32;5.72;;;10.40;99.90;;;;;;4250968;27;20081;-82
2023/10/24 00:14:27;;;;;;;13.65;6.07;;;10.50;99.90;;;;;;4237313;27;20040;-82
2023/10/24 00:16:27;;;;;;;10.23;5.82;;;10.50;99.90;;;;;;4248784;27;20441;-82
2023/10/24 00:18:28;;;;;;;12.00;6.18;;;10.40;99.90;;;;;;4236397;27;20039;-81
2023/10/24 00:20:29;;;;;;;13.38;6.50;;;10.40;99.90;;;;;;4248349;27;20458;-81
2023/10/24 00:22:30;;;;;;;12.52;6.13;;;10.40;99.90;;;;;;4236112;27;20127;-81
2023/10/24 00:24:31;;;;;;;14.88;6.45;;;10.40;99.90;;;;;;4248679;27;20474;-81
2023/10/24 00:26:31;;;;;;;11.30;6.10;;;10.40;99.90;;;;;;4236053;27;20479;-81
2023/10/24 00:28:33;;;;;;;14.13;6.75;;;10.40;99.90;;;;;;4248883;27;20126;-81
2023/10/24 00:30:34;;;;;;;15.52;6.35;;;10.40;99.90;;;;;;4235795;27;20039;-81
2023/10/24 00:32:35;;;;;;;13.82;6.03;;;10.40;99.90;;;;;;4249485;27;20073;-82
2023/10/24 00:34:36;;;;;;;12.20;5.82;;;10.40;99.90;;;;;;4243064;27;20051;-82
2023/10/24 00:36:39;;;;;;;11.85;5.88;;;10.40;99.90;;;;;;4250775;27;20114;-81
2023/10/24 00:38:40;;;;;;;15.77;6.55;;;10.40;99.90;;;;;;4234390;27;20082;-81
2023/10/24 00:40:41;;;;;;;11.25;5.82;;;10.40;99.90;;;;;;4250084;27;20475;-82
2023/10/24 00:42:41;;;;;;;13.25;6.20;;;10.40;99.90;;;;;;4234460;27;20040;-81
2023/10/24 00:44:42;;;;;;;13.02;6.45;;;10.40;99.90;;;;;;4249960;27;20043;-81
2023/10/24 00:46:43;;;;;;;15.82;6.60;;;10.40;99.90;;;;;;4234050;27;20108;-82
2023/10/24 00:48:44;;;;;;;12.20;5.90;;;10.40;99.90;;;;;;4249875;27;20043;-81
2023/10/24 00:50:44;;;;;;;13.13;5.97;;;10.30;99.90;;;;;;4233480;27;20092;-81
2023/10/24 00:52:46;;;;;;;15.75;5.85;;;10.40;99.90;;;;;;4250568;27;20043;-81
2023/10/24 00:54:47;;;;;;;14.40;6.78;;;10.40;99.90;;;;;;4233666;27;20130;-82
2023/10/24 00:56:49;;;;;;;15.40;6.70;;;10.30;99.90;;;;;;4250237;27;20035;-82
2023/10/24 00:58:51;;;;;;;13.32;6.35;;;9.90;99.90;;;;;;4234320;27;20406;-82
2023/10/24 01:00:51;;;;;;;13.00;5.85;;;10.30;99.90;;;;;;4249383;27;20465;-82
2023/10/24 01:02:53;;;;;;;10.18;5.70;;;10.30;99.90;;;;;;4234573;27;20051;-82
2023/10/24 01:04:56;;;;;;;12.07;6.05;;;10.30;99.90;;;;;;4248993;27;20040;-82
2023/10/24 01:06:57;;;;;;;12.73;6.43;;;10.30;99.90;;;;;;4245055;27;20074;-82
2023/10/24 01:08:58;;;;;;;9.07;4.90;;;10.30;99.90;;;;;;4248531;27;20371;-81
2023/10/24 01:10:59;;;;;;;9.30;5.30;;;10.30;99.90;;;;;;4234039;27;20040;-82
2023/10/24 01:12:59;;;;;;;17.35;6.93;;;10.30;99.90;;;;;;4230932;28;20399;-82
2023/10/24 01:15:00;;;;;;;13.93;6.10;;;10.30;99.90;;;;;;4249890;27;20039;-82
2023/10/24 01:17:12;;;;;;;8.52;5.32;;;10.30;99.90;;;;;;4229736;28;20129;-81
2023/10/24 01:19:13;;;;;;;10.82;5.63;;;10.30;99.90;;;;;;4236879;27;20054;-81
2023/10/24 01:21:14;;;;;;;10.65;6.13;;;10.30;99.90;;;;;;4246395;27;20411;-81
2023/10/24 01:23:14;;;;;;;12.13;6.03;;;10.30;99.90;;;;;;4237014;27;20035;-82
2023/10/24 01:25:15;;;;;;;11.05;5.47;;;10.30;99.90;;;;;;4250070;27;20118;-81
2023/10/24 01:27:18;;;;;;;14.18;5.70;;;10.30;99.90;;;;;;4245437;27;20085;-82
2023/10/24 01:29:19;;;;;;;17.60;7.13;;;10.30;99.90;;;;;;4237669;27;20043;-81
2023/10/24 01:31:20;;;;;;;11.68;5.82;;;10.20;99.90;;;;;;4245308;27;20376;-81
2023/10/24 01:33:21;;;;;;;12.68;6.20;;;10.30;99.90;;;;;;4237783;27;20047;-82
2023/10/24 01:35:22;;;;;;;12.95;5.90;;;10.20;99.90;;;;;;4244569;27;20393;-82
2023/10/24 01:37:22;;;;;;;10.60;5.95;;;10.30;99.90;;;;;;4203121;28;20090;-82
2023/10/24 01:39:24;;;;;;;10.95;5.82;;;10.20;99.90;;;;;;4244373;27;20844;-82
2023/10/24 01:41:24;;;;;;;12.90;6.53;;;10.20;99.90;;;;;;4238360;27;20046;-81
2023/10/24 01:43:25;;;;;;;14.65;5.97;;;10.20;99.90;;;;;;4244263;27;20832;-82
2023/10/24 01:45:26;;;;;;;14.25;6.45;;;10.20;99.90;;;;;;4238601;27;20617;-82
2023/10/24 01:47:27;;;;;;;12.63;6.53;;;10.20;99.90;;;;;;4243780;27;20048;-82
2023/10/24 01:49:27;;;;;;;14.13;6.95;;;10.20;99.90;;;;;;4238096;27;20491;-82
2023/10/24 01:51:28;;;;;;;11.93;6.75;;;10.20;99.90;;;;;;4243089;27;20182;-82
2023/10/24 01:53:29;;;;;;;12.50;6.50;;;10.20;99.90;;;;;;4238757;27;20490;-82
2023/10/24 01:55:30;;;;;;;11.68;6.55;;;10.20;99.90;;;;;;4243135;27;20043;-82
2023/10/24 01:57:31;;;;;;;14.98;7.57;;;10.30;99.90;;;;;;4239028;27;20440;-82
2023/10/24 01:59:31;;;;;;;11.60;5.93;;;10.20;99.90;;;;;;4242959;27;20039;-82
2023/10/24 02:01:32;;;;;;;12.02;6.45;;;10.30;99.90;;;;;;4238808;27;20130;-82
2023/10/24 02:03:34;;;;;;;12.00;6.50;;;10.30;99.90;;;;;;4249082;27;20403;-82
2023/10/24 02:05:35;;;;;;;14.65;6.70;;;10.20;99.90;;;;;;4242473;27;20036;-82
2023/10/24 02:07:36;;;;;;;13.50;6.22;;;10.20;99.90;;;;;;4239732;27;20506;-82
2023/10/24 02:09:36;;;;;;;16.67;8.00;;;10.30;99.90;;;;;;4241748;27;20043;-82
2023/10/24 02:11:37;;;;;;;15.85;7.18;;;10.30;99.90;;;;;;4239703;27;20440;-82
2023/10/24 02:13:38;;;;;;;14.65;6.50;;;10.30;99.90;;;;;;4241323;27;20161;-82
2023/10/24 02:15:39;;;;;;;16.15;7.30;;;10.20;99.90;;;;;;4239762;27;20507;-82
2023/10/24 02:17:43;;;;;;;12.90;6.68;;;10.20;99.90;;;;;;4241306;27;20067;-82
2023/10/24 02:19:44;;;;;;;15.02;7.00;;;10.30;99.90;;;;;;4240505;27;20183;-82
2023/10/24 02:21:45;;;;;;;12.90;6.60;;;10.30;99.90;;;;;;4240804;27;20050;-81
2023/10/24 02:23:45;;;;;;;18.02;7.95;;;10.30;99.90;;;;;;4222478;28;20044;-81
2023/10/24 02:25:46;;;;;;;13.32;6.95;;;10.30;99.90;;;;;;4239801;27;20067;-82
2023/10/24 02:27:47;;;;;;;14.63;6.60;;;10.30;99.90;;;;;;4240782;27;20548;-81
2023/10/24 02:29:48;;;;;;;14.73;6.90;;;10.30;99.90;;;;;;4240207;27;20040;-81
2023/10/24 02:31:48;;;;;;;12.35;7.03;;;10.30;99.90;;;;;;4222717;28;20122;-82
2023/10/24 02:33:50;;;;;;;17.95;6.65;;;10.30;99.90;;;;;;4239925;27;20075;-82
2023/10/24 02:35:50;;;;;;;13.57;7.10;;;9.90;99.90;;;;;;4231663;28;20035;-82
2023/10/24 02:37:51;;;;;;;12.57;6.57;;;10.30;99.90;;;;;;4240949;27;20043;-82
2023/10/24 02:39:52;;;;;;;15.55;8.05;;;10.30;99.90;;;;;;4239477;27;20408;-81
2023/10/24 02:41:52;;;;;;;14.25;8.07;;;10.30;99.90;;;;;;4241037;27;20055;-82
2023/10/24 02:43:54;;;;;;;13.15;7.60;;;10.30;99.90;;;;;;4238956;27;20536;-82
2023/10/24 02:45:58;;;;;;;13.23;7.25;;;10.30;99.90;;;;;;4241609;27;20031;-82
2023/10/24 02:47:59;;;;;;;15.88;7.10;;;10.30;99.90;;;;;;4238349;27;20050;-82
2023/10/24 02:50:00;;;;;;;14.30;7.70;;;10.30;99.90;;;;;;4241888;27;20086;-81
2023/10/24 02:52:00;;;;;;;17.40;8.05;;;10.30;99.90;;;;;;4238159;27;20044;-82
2023/10/24 02:54:01;;;;;;;14.07;8.05;;;10.30;99.90;;;;;;4241983;27;20039;-82
2023/10/24 02:56:02;;;;;;;12.95;6.78;;;10.30;99.90;;;;;;4248177;27;20038;-82
2023/10/24 02:58:03;;;;;;;13.88;7.45;;;10.30;99.90;;;;;;4230036;28;20142;-82
2023/10/24 03:00:05;;;;;;;14.27;7.03;;;10.30;99.90;;;;;;4237479;27;20105;-82
2023/10/24 03:02:06;;;;;;;15.80;7.05;;;10.40;99.90;;;;;;4242473;27;20078;-82
2023/10/24 03:04:07;;;;;;;15.98;7.68;;;10.30;99.90;;;;;;4237037;27;20066;-82
2023/10/24 03:06:15;;;;;;;13.70;7.35;;;10.40;99.90;;;;;;4242776;27;20031;-82
2023/10/24 03:08:15;;;;;;;14.02;7.35;;;10.40;99.90;;;;;;4235699;27;20533;-82
2023/10/24 03:10:16;;;;;;;14.20;7.30;;;10.40;99.90;;;;;;4244134;27;20039;-82
2023/10/24 03:12:17;;;;;;;13.77;7.70;;;10.40;99.90;;;;;;4248533;27;20047;-81
2023/10/24 03:14:17;;;;;;;20.23;8.25;;;10.40;99.90;;;;;;4235174;27;20040;-82
2023/10/24 03:16:18;;;;;;;14.85;6.80;;;10.40;99.90;;;;;;4244288;27;20118;-81
2023/10/24 03:18:19;;;;;;;15.18;7.22;;;10.40;99.90;;;;;;4235037;27;20395;-81
2023/10/24 03:20:20;;;;;;;12.43;6.95;;;10.40;99.90;;;;;;4226208;28;20047;-82
2023/10/24 03:22:22;;;;;;;10.70;6.28;;;10.40;99.90;;;;;;4234765;27;20094;-81
2023/10/24 03:24:23;;;;;;;12.70;6.80;;;10.50;99.90;;;;;;4245122;27;20043;-82
2023/10/24 03:26:24;;;;;;;16.27;7.53;;;10.40;99.90;;;;;;4233463;27;20092;-82
2023/10/24 03:28:25;;;;;;;13.10;6.70;;;10.40;99.90;;;;;;4245020;27;20384;-80
2023/10/24 03:30:25;;;;;;;14.85;7.15;;;10.50;99.90;;;;;;4241287;27;20487;-82
2023/10/24 03:32:27;;;;;;;13.23;7.15;;;10.50;99.90;;;;;;4237451;27;20047;-82
2023/10/24 03:34:27;;;;;;;14.35;6.90;;;10.50;99.90;;;;;;4245213;27;20605;-82
2023/10/24 03:36:28;;;;;;;11.70;6.50;;;10.50;99.90;;;;;;4232727;27;20039;-82
2023/10/24 03:38:30;;;;;;;11.00;6.55;;;10.50;99.90;;;;;;4231119;28;20504;-82
2023/10/24 03:40:31;;;;;;;12.88;6.75;;;10.50;99.90;;;;;;4227446;28;20039;-82
2023/10/24 03:42:32;;;;;;;11.27;6.30;;;10.50;99.90;;;;;;4232599;27;20200;-82
2023/10/24 03:44:33;;;;;;;12.35;6.28;;;10.50;99.90;;;;;;4245899;27;20047;-82
2023/10/24 03:46:33;;;;;;;12.57;6.82;;;10.50;99.90;;;;;;4231866;27;20547;-81
2023/10/24 03:48:34;;;;;;;13.25;6.88;;;10.60;99.90;;;;;;4246181;27;20391;-82
2023/10/24 03:50:39;;;;;;;12.45;6.65;;;10.50;99.90;;;;;;4213560;28;20051;-82
2023/10/24 03:52:40;;;;;;;13.73;6.43;;;10.60;99.90;;;;;;4246524;27;20050;-82
2023/10/24 03:54:40;;;;;;;12.25;6.22;;;10.60;99.90;;;;;;4212517;28;20043;-82
2023/10/24 03:56:42;;;;;;;15.13;6.63;;;10.60;99.90;;;;;;4212780;28;20039;-82
2023/10/24 03:58:43;;;;;;;9.30;5.55;;;10.60;99.90;;;;;;4247478;28;20391;-82
2023/10/24 04:00:43;;;;;;;10.15;6.18;;;10.60;99.90;;;;;;4230866;28;20046;-82
2023/10/24 04:02:46;;;;;;;12.45;7.05;;;10.70;99.90;;;;;;4247385;28;20867;-82
2023/10/24 04:04:46;;;;;;;11.25;6.30;;;10.60;99.90;;;;;;4212927;28;20040;-82
2023/10/24 04:06:47;;;;;;;11.90;6.57;;;10.60;99.90;;;;;;4246915;28;20138;-82
2023/10/24 04:08:48;;;;;;;13.70;6.00;;;10.70;99.90;;;;;;4231698;28;20047;-82
2023/10/24 04:10:49;;;;;;;12.50;6.63;;;10.70;99.90;;;;;;4248597;28;20118;-82
2023/10/24 04:12:49;;;;;;;13.15;5.93;;;10.70;99.90;;;;;;4247256;28;20110;-82
2023/10/24 04:14:50;;;;;;;10.40;6.25;;;10.70;99.90;;;;;;4231524;28;20044;-82
2023/10/24 04:16:51;;;;;;;12.60;6.45;;;10.70;99.90;;;;;;4246494;28;20035;-82
2023/10/24 04:18:53;;;;;;;11.27;6.82;;;10.70;99.90;;;;;;4231760;28;20039;-82
2023/10/24 04:20:54;;;;;;;11.85;6.40;;;10.70;99.90;;;;;;4246671;28;20487;-81
2023/10/24 04:22:54;;;;;;;10.10;6.10;;;10.70;99.90;;;;;;4232465;28;20101;-82
2023/10/24 04:24:55;;;;;;;14.23;6.93;;;10.80;99.90;;;;;;4246243;28;20058;-82
2023/10/24 04:26:56;;;;;;;12.73;6.63;;;10.70;99.90;;;;;;4213934;28;20043;-82
2023/10/24 04:28:58;;;;;;;12.52;6.47;;;10.80;99.90;;;;;;4246333;28;20529;-81
2023/10/24 04:31:00;;;;;;;13.32;7.13;;;10.80;99.90;;;;;;4232203;28;20096;-82
2023/10/24 04:33:01;;;;;;;16.23;6.97;;;10.70;99.90;;;;;;4245474;28;20088;-82
2023/10/24 04:35:02;;;;;;;14.77;7.32;;;10.80;99.90;;;;;;4233054;28;20039;-81
2023/10/24 04:37:03;;;;;;;12.88;7.40;;;10.80;99.90;;;;;;4244956;28;20047;-82
2023/10/24 04:39:03;;;;;;;11.45;6.43;;;10.80;99.90;;;;;;4232827;28;20075;-82
2023/10/24 04:41:04;;;;;;;16.65;7.43;;;10.80;99.90;;;;;;4244756;28;20083;-82
2023/10/24 04:43:08;;;;;;;14.05;7.03;;;10.80;99.90;;;;;;4233087;28;20445;-82
2023/10/24 04:45:09;;;;;;;12.73;6.90;;;10.80;99.90;;;;;;4244227;28;20031;-81
2023/10/24 04:47:10;;;;;;;16.92;8.05;;;10.80;99.90;;;;;;4235359;27;20043;-81
2023/10/24 04:49:11;;;;;;;18.75;8.20;;;10.80;99.90;;;;;;4228671;28;20051;-81
2023/10/24 04:51:12;;;;;;;13.40;7.18;;;10.80;99.90;;;;;;4236991;27;20051;-82
2023/10/24 04:53:12;;;;;;;13.75;7.80;;;10.90;99.90;;;;;;4246906;27;20045;-82
2023/10/24 04:55:13;;;;;;;14.32;8.05;;;10.90;99.90;;;;;;4238784;27;20028;-82
2023/10/24 04:57:14;;;;;;;17.27;7.60;;;10.90;99.90;;;;;;4246299;27;20031;-82
2023/10/24 04:59:15;;;;;;;11.80;7.03;;;10.90;99.90;;;;;;4219448;28;20556;-82
2023/10/24 05:01:15;;;;;;;16.45;7.35;;;10.90;99.90;;;;;;4246184;27;20039;-82
2023/10/24 05:03:16;;;;;;;15.90;7.55;;;10.90;99.90;;;;;;4237826;27;20043;-82
2023/10/24 05:05:17;;;;;;;15.77;7.65;;;10.90;99.90;;;;;;4246233;27;20073;-82
2023/10/24 05:07:18;;;;;;;15.38;8.60;;;10.90;99.90;;;;;;4219531;28;20055;-81
2023/10/24 05:09:18;;;;;;;14.55;7.20;;;10.90;99.90;;;;;;4249645;27;20047;-82
2023/10/24 05:11:19;;;;;;;20.77;7.88;;;11.00;99.90;;;;;;4245533;27;20075;-82
2023/10/24 05:13:20;;;;;;;16.85;8.25;;;10.90;99.90;;;;;;4238130;27;20118;-82
2023/10/24 05:15:21;;;;;;;12.88;7.60;;;11.00;99.90;;;;;;4245277;27;20035;-82
2023/10/24 05:17:21;;;;;;;14.48;6.97;;;11.00;99.90;;;;;;4238401;27;20103;-81
2023/10/24 05:19:22;;;;;;;16.10;7.63;;;11.00;99.90;;;;;;4245020;27;20058;-81
2023/10/24 05:21:23;;;;;;;14.38;7.22;;;11.00;99.90;;;;;;4238397;27;20039;-82
2023/10/24 05:23:24;;;;;;;17.65;7.65;;;11.00;99.90;;;;;;4244714;27;20050;-81
2023/10/24 05:25:24;;;;;;;13.85;7.75;;;11.00;99.90;;;;;;4238608;27;20031;-81
2023/10/24 05:27:26;;;;;;;15.13;8.32;;;11.00;99.90;;;;;;4244424;27;20044;-82
2023/10/24 05:29:27;;;;;;;16.08;8.30;;;11.00;99.90;;;;;;4238996;27;20043;-82
2023/10/24 05:31:28;;;;;;;18.17;7.90;;;11.00;99.90;;;;;;4225389;28;20051;-82
2023/10/24 05:33:32;;;;;;;16.67;7.82;;;11.10;99.90;;;;;;4239020;27;20039;-82
2023/10/24 05:35:32;;;;;;;16.63;7.35;;;11.10;99.90;;;;;;4243327;27;20499;-82
2023/10/24 05:37:34;;;;;;;16.38;8.07;;;11.00;99.90;;;;;;4239851;27;20081;-82
2023/10/24 05:39:35;;;;;;;15.93;8.23;;;11.00;99.90;;;;;;4224886;28;20059;-83
2023/10/24 05:41:36;;;;;;;16.35;8.05;;;11.00;99.90;;;;;;4240239;27;20043;-82
2023/10/24 05:43:38;;;;;;;13.88;7.82;;;11.10;99.90;;;;;;4242722;27;20043;-82
2023/10/24 05:45:38;;;;;;;12.57;7.68;;;11.10;99.90;;;;;;4237061;27;20119;-82
2023/10/24 05:47:40;;;;;;;14.77;8.02;;;11.00;99.90;;;;;;4239361;27;20043;-82
2023/10/24 05:49:42;;;;;;;13.48;7.90;;;11.10;99.90;;;;;;4222437;28;20060;-83
2023/10/24 05:51:42;;;;;;;13.10;7.63;;;11.00;99.90;;;;;;4232732;27;20051;-82
2023/10/24 05:53:43;;;;;;;16.15;8.00;;;11.00;99.90;;;;;;4224732;28;20081;-82
2023/10/24 05:55:44;;;;;;;16.77;7.78;;;11.00;99.90;;;;;;4227714;28;20447;-83
2023/10/24 05:57:45;;;;;;;15.57;7.85;;;11.00;99.90;;;;;;4229753;28;20461;-82
2023/10/24 05:59:45;;;;;;;14.25;7.88;;;11.00;99.90;;;;;;4226761;28;20480;-82
2023/10/24 06:01:46;;;;;;;16.27;8.50;;;11.00;99.90;;;;;;4222690;28;20059;-82
2023/10/24 06:03:47;;;;;;;17.67;8.10;;;11.00;99.90;;;;;;4223800;28;20439;-82
2023/10/24 06:05:49;;;;;;;14.88;7.85;;;11.00;99.90;;;;;;4222933;28;20044;-82
2023/10/24 06:07:50;;;;;;;14.82;8.75;;;11.00;99.90;;;;;;4222808;28;20124;-82
2023/10/24 06:09:51;;;;;;;14.90;8.55;;;11.00;99.90;;;;;;4223181;28;20641;-82
2023/10/24 06:11:55;;;;;;;14.32;8.30;;;11.00;99.90;;;;;;4232443;28;20552;-82
2023/10/24 06:13:56;;;;;;;16.58;8.13;;;11.00;99.90;;;;;;4222428;28;20068;-82
2023/10/24 06:16:09;;;;;;;16.30;8.40;;;11.00;99.90;;;;;;4225056;28;20043;-82
2023/10/24 06:18:09;;;;;;;15.63;8.38;;;11.00;99.90;;;;;;4232139;28;20119;-82
2023/10/24 06:20:10;;;;;;;16.55;7.95;;;11.00;99.90;;;;;;4220271;28;20047;-82
2023/10/24 06:22:11;;;;;;;17.70;8.35;;;11.00;99.90;;;;;;4226815;28;20043;-82
2023/10/24 06:24:12;;;;;;;17.65;8.35;;;11.00;99.90;;;;;;4219951;28;20601;-82
2023/10/24 06:26:14;;;;;;;16.40;8.07;;;11.00;99.90;;;;;;4227304;28;20081;-83
2023/10/24 06:28:15;;;;;;;13.68;8.50;;;11.00;99.90;;;;;;4219449;28;20044;-83
2023/10/24 06:30:16;;;;;;;20.85;8.98;;;11.00;99.90;;;;;;4227778;28;20069;-83
2023/10/24 06:32:17;;;;;;;12.18;7.47;;;11.00;99.90;;;;;;4218923;28;20055;-83
2023/10/24 06:34:18;;;;;;;14.95;7.70;;;11.00;99.90;;;;;;4228208;28;20043;-83
2023/10/24 06:36:21;;;;;;;15.80;8.52;;;11.10;99.90;;;;;;4218826;28;20072;-84
2023/10/24 06:38:22;;;;;;;14.50;8.05;;;11.00;99.90;;;;;;4210780;28;20072;-84
2023/10/24 06:40:22;;;;;;;15.75;8.38;;;11.10;99.90;;;;;;4217023;28;20473;-82
2023/10/24 06:42:24;;;;;;;14.73;8.57;;;11.00;99.90;;;;;;4228386;28;20043;-82
2023/10/24 06:44:27;;;;;;;18.20;7.70;;;10.80;99.90;;;;;;4217779;28;20445;-82
2023/10/24 06:46:28;;;;;;;14.45;8.38;;;11.10;99.90;;;;;;4229326;28;20040;-82
2023/10/24 06:48:31;;;;;;;16.17;7.95;;;11.10;99.90;;;;;;4217565;28;20123;-82
2023/10/24 06:50:32;;;;;;;16.08;7.80;;;11.10;99.90;;;;;;4224231;28;20064;-81
2023/10/24 06:52:33;;;;;;;14.98;7.90;;;11.10;99.90;;;;;;4229809;28;20040;-82
2023/10/24 06:54:33;;;;;;;14.23;7.60;;;11.10;99.90;;;;;;4216367;28;20476;-82
2023/10/24 06:56:35;;;;;;;16.27;7.78;;;11.10;99.90;;;;;;4229932;28;20165;-82
2023/10/24 06:58:37;;;;;;;13.05;7.15;;;11.10;99.90;;;;;;4215911;28;20046;-82
2023/10/24 07:00:37;;;;;;;12.90;7.30;;;11.10;99.90;;;;;;4229309;28;20032;-81
2023/10/24 07:02:39;;;;;;;14.88;7.40;;;11.20;99.90;;;;;;4215573;28;20100;-82
2023/10/24 07:04:40;;;;;;;12.32;7.05;;;11.10;99.90;;;;;;4230863;28;20078;-83
2023/10/24 07:06:42;;;;;;;11.32;6.55;;;11.10;99.90;;;;;;4215275;28;20040;-82
2023/10/24 07:08:46;;;;;;;15.88;7.05;;;11.20;99.90;;;;;;4230929;28;20039;-82
2023/10/24 07:10:48;;;;;;;13.13;6.72;;;11.10;99.90;;;;;;4214374;28;20539;-82
2023/10/24 07:12:50;;;;;;;13.07;6.80;;;11.20;99.90;;;;;;4230870;28;20464;-82
2023/10/24 07:14:56;;;;;;;13.80;6.00;;;11.20;99.90;;;;;;4215081;28;20051;-83
2023/10/24 07:16:56;;;;;;;13.15;6.55;;;11.20;99.90;;;;;;4229798;28;20510;-82
2023/10/24 07:18:57;;;;;;;11.52;6.28;;;11.20;99.90;;;;;;4216027;28;20035;-83
2023/10/24 07:20:58;;;;;;;14.35;6.88;;;11.20;99.90;;;;;;4229310;28;20063;-83
2023/10/24 07:22:59;;;;;;;10.40;5.85;;;11.20;99.90;;;;;;4216099;28;20044;-82
2023/10/24 07:24:59;;;;;;;10.27;6.18;;;11.20;99.90;;;;;;4229832;28;20047;-82
2023/10/24 07:27:00;;;;;;;12.27;6.60;;;11.20;99.90;;;;;;4227690;28;20125;-82
2023/10/24 07:29:01;;;;;;;14.02;6.82;;;11.20;99.90;;;;;;4216439;28;20044;-83
2023/10/24 07:31:02;;;;;;;21.20;7.03;;;11.20;99.90;;;;;;4228766;28;20043;-82
2023/10/24 07:33:03;;;;;;;11.63;6.07;;;11.20;99.90;;;;;;4215211;28;20093;-82
2023/10/24 07:35:04;;;;;;;13.18;5.93;;;11.30;99.90;;;;;;4228508;28;20042;-82
2023/10/24 07:37:05;;;;;;;14.07;6.07;;;11.30;99.90;;;;;;4198619;28;20225;-82
2023/10/24 07:39:06;;;;;;;13.38;6.45;;;11.20;99.90;;;;;;4217226;28;20048;-83
2023/10/24 07:41:08;;;;;;;13.15;6.38;;;11.20;99.90;;;;;;4228035;28;20040;-82
2023/10/24 07:43:08;;;;;;;12.13;6.25;;;11.30;99.90;;;;;;4215026;28;20448;-82
2023/10/24 07:45:11;;;;;;;11.48;7.10;;;11.30;99.90;;;;;;4216481;28;20122;-83
2023/10/24 07:47:12;;;;;;;13.73;6.18;;;11.30;99.90;;;;;;4227380;28;20040;-82
2023/10/24 07:49:12;;;;;;;14.50;6.63;;;11.20;99.90;;;;;;4216353;28;20140;-82
2023/10/24 07:51:13;;;;;;;10.85;5.85;;;11.30;99.90;;;;;;4241797;27;20126;-82
2023/10/24 07:53:14;;;;;;;10.15;6.03;;;11.30;99.90;;;;;;4222867;28;20036;-82
2023/10/24 07:55:15;;;;;;;12.13;6.47;;;11.30;99.90;;;;;;4244955;27;20079;-82
2023/10/24 07:57:16;;;;;;;10.25;5.93;;;11.20;99.90;;;;;;4244265;27;20047;-82
2023/10/24 07:59:16;;;;;;;14.23;6.50;;;11.20;99.90;;;;;;4225037;28;20044;-82
2023/10/24 08:01:18;;;;;;;9.85;5.90;;;11.20;99.90;;;;;;4235158;28;20429;-82
2023/10/24 08:03:18;;;;;;;10.98;6.18;;;11.20;99.90;;;;;;4242939;28;20059;-82
2023/10/24 08:05:19;;;;;;;10.43;5.55;;;11.30;99.90;;;;;;4235504;28;20392;-82
2023/10/24 08:07:20;;;;;;;9.32;5.60;;;11.30;99.90;;;;;;4224366;28;20040;-82
2023/10/24 08:09:21;;;;;;;10.70;5.50;;;11.30;99.90;;;;;;4235725;28;20043;-82
2023/10/24 08:11:22;;;;;;;10.27;5.75;;;11.30;99.90;;;;;;4235276;28;20097;-82
2023/10/24 08:13:22;;;;;;;10.10;5.45;;;11.30;99.90;;;;;;4246128;28;20563;-82
2023/10/24 08:15:23;;;;;;;13.32;6.03;;;11.30;99.90;;;;;;4236062;28;20118;-82
2023/10/24 08:17:24;;;;;;;13.20;6.00;;;11.30;99.90;;;;;;4242070;28;20044;-82
2023/10/24 08:19:25;;;;;;;9.43;5.30;;;11.30;99.90;;;;;;4217937;28;20094;-82
2023/10/24 08:21:25;;;;;;;10.18;5.90;;;11.30;99.90;;;;;;4244198;27;20048;-82
2023/10/24 08:23:29;;;;;;;10.38;6.22;;;11.30;99.90;;;;;;4239967;27;20491;-83
2023/10/24 08:25:31;;;;;;;9.32;5.30;;;11.30;99.90;;;;;;4225678;28;20052;-82
2023/10/24 08:27:31;;;;;;;10.10;4.95;;;11.30;99.90;;;;;;4241507;27;20143;-82
2023/10/24 08:29:32;;;;;;;11.38;5.22;;;11.30;99.90;;;;;;4222433;28;20051;-81
2023/10/24 08:31:33;;;;;;;10.15;5.65;;;11.30;99.90;;;;;;4250903;27;20122;-82
2023/10/24 08:33:34;;;;;;;7.93;4.75;;;11.30;99.90;;;;;;4225823;28;20044;-82
2023/10/24 08:35:35;;;;;;;11.55;5.45;;;11.30;99.90;;;;;;4240816;27;20042;-83
2023/10/24 08:37:36;;;;;;;10.98;5.45;;;11.30;99.90;;;;;;4225197;28;20040;-82
2023/10/24 08:39:37;;;;;;;8.25;4.47;;;11.30;99.90;;;;;;4241322;27;20399;-82
2023/10/24 08:41:38;;;;;;;10.27;5.40;;;11.30;99.90;;;;;;4243342;27;20123;-82
2023/10/24 08:43:45;;;;;;;10.00;5.20;;;11.30;99.90;;;;;;4241067;27;20116;-82
2023/10/24 08:45:49;;;;;;;9.38;5.25;;;11.30;99.90;;;;;;4250616;27;20081;-83
2023/10/24 08:47:53;;;;;;;11.73;6.28;;;11.30;99.90;;;;;;4241543;27;20085;-82
2023/10/24 08:49:55;;;;;;;11.95;6.13;;;11.30;99.90;;;;;;4236848;27;20051;-82
2023/10/24 08:51:56;;;;;;;9.82;5.22;;;11.20;99.90;;;;;;4250584;27;20160;-82
2023/10/24 08:53:57;;;;;;;11.95;5.55;;;11.30;99.90;;;;;;4222092;28;20040;-81
2023/10/24 08:55:59;;;;;;;10.15;5.65;;;11.30;99.90;;;;;;4225591;28;20487;-82
2023/10/24 08:58:02;;;;;;;12.13;5.85;;;11.30;99.90;;;;;;4221964;28;20044;-81
2023/10/24 09:00:18;;;;;;;9.35;5.50;;;11.30;99.90;;;;;;4222507;27;20051;-82
2023/10/24 09:02:20;;;;;;;11.70;5.40;;;11.30;99.90;;;;;;4218362;28;20106;-82
2023/10/24 09:04:22;;;;;;;13.07;5.35;;;11.40;99.90;;;;;;4246870;27;20110;-82
2023/10/24 09:06:23;;;;;;;11.95;5.63;;;11.40;99.90;;;;;;4236605;27;20040;-82
2023/10/24 09:08:25;;;;;;;13.35;5.55;;;11.40;99.90;;;;;;4247243;27;20410;-81
2023/10/24 09:10:25;;;;;;;10.05;5.65;;;11.40;99.90;;;;;;4249882;27;20380;-82
2023/10/24 09:12:29;;;;;;;12.48;6.15;;;11.40;99.90;;;;;;4235992;27;20105;-82
2023/10/24 09:14:30;;;;;;;10.00;5.45;;;11.40;99.90;;;;;;4248174;27;20127;-82
2023/10/24 09:16:33;;;;;;;13.07;5.70;;;11.40;99.90;;;;;;4235267;27;20428;-82
2023/10/24 09:18:38;;;;;;;10.93;6.60;;;11.40;99.90;;;;;;4249141;27;20039;-83
2023/10/24 09:20:39;;;;;;;11.23;6.63;;;11.40;99.90;;;;;;4233568;27;20058;-82
2023/10/24 09:22:43;;;;;;;9.95;5.68;;;11.40;99.90;;;;;;4249541;27;20047;-81
2023/10/24 09:24:45;;;;;;;9.13;5.65;;;11.40;99.90;;;;;;4231300;28;20076;-82
2023/10/24 09:26:54;;;;;;;9.75;5.72;;;11.20;99.90;;;;;;4233286;28;20066;-82
2023/10/24 09:28:57;;;;;;;13.93;6.33;;;11.40;99.90;;;;;;4248851;27;20131;-82
2023/10/24 09:30:59;;;;;;;11.35;5.63;;;11.40;99.90;;;;;;4216480;28;20052;-83
2023/10/24 09:33:00;;;;;;;12.27;6.40;;;11.40;99.90;;;;;;4248078;27;20050;-82
2023/10/24 09:35:03;;;;;;;11.45;5.65;;;11.40;99.90;;;;;;4242661;27;20399;-83
2023/10/24 09:37:07;;;;;;;11.43;6.40;;;11.40;99.90;;;;;;4240026;27;20498;-82
2023/10/24 09:39:11;;;;;;;12.13;6.53;;;11.40;99.90;;;;;;4218145;28;20047;-82
2023/10/24 09:41:14;;;;;;;14.38;6.53;;;11.40;99.90;;;;;;4245752;27;20043;-82
2023/10/24 09:43:26;;;;;;;10.20;6.00;;;11.40;99.90;;;;;;4236922;27;20114;-82
2023/10/24 09:45:27;;;;;;;11.63;6.40;;;11.30;99.90;;;;;;4225509;28;20416;-82
2023/10/24 09:47:31;;;;;;;12.15;6.43;;;11.30;99.90;;;;;;4220735;28;20468;-82
2023/10/24 09:49:32;;;;;;;12.95;5.75;;;11.30;99.90;;;;;;4242776;27;20415;-82
2023/10/24 09:51:37;;;;;;;12.85;6.43;;;11.30;99.90;;;;;;4247608;27;20054;-82
2023/10/24 09:53:38;;;;;;;12.73;6.63;;;11.30;99.90;;;;;;4241943;27;20130;-82
2023/10/24 09:55:48;;;;;;;11.57;6.25;;;11.30;99.90;;;;;;4240258;27;20043;-82
2023/10/24 09:57:50;;;;;;;11.70;6.07;;;11.30;99.90;;;;;;4240243;27;20055;-82
2023/10/24 09:59:54;;;;;;;13.60;6.70;;;11.30;99.90;;;;;;4241696;27;20078;-82
2023/10/24 10:01:56;;;;;;;11.98;6.68;;;11.30;99.90;;;;;;4239384;27;20039;-82
2023/10/24 10:04:00;;;;;;;12.23;6.70;;;11.30;99.90;;;;;;4242671;27;20433;-82
2023/10/24 10:06:08;;;;;;;14.38;7.30;;;11.30;99.90;;;;;;4238381;27;20050;-82
2023/10/24 10:08:12;;;;;;;12.13;6.43;;;11.30;99.90;;;;;;4244294;27;20047;-82
2023/10/24 10:10:13;;;;;;;11.57;6.43;;;11.30;99.90;;;;;;4238327;27;20119;-82
2023/10/24 10:12:17;;;;;;;10.25;5.50;;;11.30;99.90;;;;;;4237115;27;20460;-82
2023/10/24 10:14:18;;;;;;;14.10;6.50;;;11.30;99.90;;;;;;4245697;27;20479;-82
2023/10/24 10:16:51;;;;;;;10.00;5.53;;;11.30;99.90;;;;;;4235313;27;20130;-82
2023/10/24 10:18:57;;;;;;;10.52;5.28;;;11.30;99.90;;;;;;4227346;27;20063;-82
2023/10/24 10:21:35;;;;;;;10.35;5.80;;;11.40;99.90;;;;;;4247506;27;20100;-82
2023/10/24 10:23:54;;;;;;;11.85;5.82;;;11.30;99.90;;;;;;4239474;27;20045;-82
2023/10/24 10:26:08;;;;;;;13.45;6.30;;;11.30;99.90;;;;;;4238814;27;20075;-82
2023/10/24 10:28:31;;;;;;;16.33;5.80;;;11.30;99.90;;;;;;4217713;28;20127;-82